Aérodrome :
LOGIN :

S'inscrire | Disclaimer

   EN    FR    IT 

 










Légende :    VFR   VFR Marginal   IFR   IFR Intensif   IFR Très Intensif
Visi : 
Plafond : 
>= 8 km
>= 3000ft
5 à 8 km
1000 à 3000 ft
1500m à 5 km
500 à 1000 ft
800 à 1500m
200 à 500 ft
< 800m
< 200 ft
Symboles :   Orages  Brouillard  Fortes neiges  Fortes précipitations  Vent > 20 kt
SIGMETs :   Divers  Orages  Givrage  Turbulence  Onde Orograph.  Cendres Volcan.






- Altitude de l'aérodrome : 157 ft
- Code IATA : LIL


LFQQ - Lille Lesquin

DERNIER METAR :
  • 301830Z AUTO 16003KT 130V190 9999 ///TCU 16/13 Q1014 TEMPO 4000 SHRA SCT012 BKN020CB

METARs EXPIRÉS :
  • 301800Z AUTO 18005KT 9999 FEW014 SCT062 BKN150 15/13 Q1014 TEMPO 4000 SHRA SCT012 BKN020CB
  • 301730Z AUTO 19005KT 9999 SCT014 SCT020 BKN160 15/13 Q1014 NOSIG
  • 301700Z AUTO 20006KT 180V240 9999 BKN012/// BKN017/// ///TCU 15/13 Q1014 TEMPO 3000 RA BECMG BKN020
  • 301630Z AUTO 18004KT 9999 SCT011 SCT130 15/13 Q1013 TEMPO 3000 RA BKN008 BKN013 BKN025TCU
  • 301600Z AUTO 18006KT 140V210 9999 SCT008 BKN054 BKN130 15/13 Q1014 TEMPO 3000 RA BKN008 BKN013 BKN025TCU

TAF TAF LFQQ
Valide du 30 à 18h jusqu'au 02 à 00h UTC


301700Z 3018/0124 VRB03KT 9999 BKN020
PROB30
TEMPO 3018/3020 4000 SHRA SCT012 BKN020CB
PROB40 0100/0106 2000 BR
BECMG 0106/0108 23010KT
PROB30
TEMPO 0110/0115 4000 SHRA BKN030TCU
ATIS : +33 3 20 16 19 54



MET'MAP, la Météo Aéronautique d'un coup d'oeil ! - Copyright ORBIFLY Décembre 2007 - Disclaimer

ORBIFLY MET'MAP TEAM :

Programmation & Développement : Alexandra Zaïnal
Sur une idée originale de : Baudouin d'Aumeries
Soutien technique & logistique : Manuel Goepfert
Assistance : Marc-Olivier Méhu




SOURCES & CREDITS :

   NOAA